createdAt,value
2022-10-06T00:02:00.244Z,9.27
2022-10-06T00:04:32.102Z,9.32
2022-10-06T00:07:04.161Z,9.34
2022-10-06T00:09:36.059Z,9.38
2022-10-06T00:12:08.481Z,9.40
2022-10-06T00:14:40.476Z,9.40
2022-10-06T00:17:12.357Z,9.42
2022-10-06T00:19:44.194Z,9.46
2022-10-06T00:22:16.356Z,9.47
2022-10-06T00:24:48.158Z,9.51
2022-10-06T00:27:20.405Z,9.54
2022-10-06T00:29:52.789Z,9.55
2022-10-06T00:32:24.772Z,9.57
2022-10-06T00:34:58.437Z,9.60
2022-10-06T00:37:32.484Z,9.62
2022-10-06T00:40:06.893Z,9.56
2022-10-06T00:43:01.542Z,9.55
2022-10-06T00:45:36.364Z,9.55
2022-10-06T00:48:19.814Z,9.58
2022-10-06T00:50:54.587Z,9.59
2022-10-06T00:53:31.415Z,9.59
2022-10-06T00:56:03.401Z,9.63
2022-10-06T00:58:35.768Z,9.62
2022-10-06T01:01:09.948Z,9.60
2022-10-06T01:03:51.008Z,9.60
2022-10-06T01:06:22.961Z,9.60
2022-10-06T01:08:55.288Z,9.61
2022-10-06T01:11:27.249Z,9.63
2022-10-06T01:13:59.538Z,9.62
2022-10-06T01:16:34.038Z,9.61
2022-10-06T01:19:10.568Z,9.61
2022-10-06T01:21:46.295Z,9.62
2022-10-06T01:24:19.338Z,9.65
2022-10-06T01:26:53.922Z,9.66
2022-10-06T01:29:25.827Z,9.67
2022-10-06T01:31:58.151Z,9.85
2022-10-06T01:34:30.207Z,9.69
2022-10-06T01:37:03.090Z,9.71
2022-10-06T01:39:35.077Z,9.69
2022-10-06T01:42:07.306Z,9.72
2022-10-06T01:44:39.291Z,9.72
2022-10-06T01:47:11.530Z,9.74
2022-10-06T01:49:43.484Z,9.77
2022-10-06T01:52:15.969Z,9.77
2022-10-06T01:54:48.062Z,9.78
2022-10-06T01:57:21.455Z,9.81
2022-10-06T01:59:54.983Z,9.81
2022-10-06T02:02:27.197Z,9.78
2022-10-06T02:04:59.081Z,9.97
2022-10-06T02:07:32.392Z,9.84
2022-10-06T02:10:05.822Z,9.79
2022-10-06T02:12:38.357Z,9.76
2022-10-06T02:15:12.359Z,9.75
2022-10-06T02:17:44.375Z,9.77
2022-10-06T02:20:16.566Z,9.77
2022-10-06T02:22:48.528Z,9.77
2022-10-06T02:25:21.928Z,9.78
2022-10-06T02:27:56.074Z,9.79
2022-10-06T02:30:28.092Z,9.82
2022-10-06T02:33:00.534Z,9.82
2022-10-06T02:35:33.246Z,9.84
2022-10-06T02:38:05.592Z,9.85
2022-10-06T02:40:37.597Z,9.88
2022-10-06T02:43:09.683Z,9.89
2022-10-06T02:45:43.412Z,9.91
2022-10-06T02:48:16.761Z,9.91
2022-10-06T02:51:00.191Z,9.93
2022-10-06T02:53:32.140Z,9.94
2022-10-06T02:56:06.980Z,9.91
2022-10-06T02:58:43.226Z,9.92
2022-10-06T03:01:18.828Z,9.94
2022-10-06T03:03:51.444Z,9.92
2022-10-06T03:06:26.622Z,9.95
2022-10-06T03:09:08.401Z,9.93
2022-10-06T03:11:43.751Z,9.93
2022-10-06T03:14:21.553Z,9.90
2022-10-06T03:16:56.793Z,9.90
2022-10-06T03:19:30.497Z,9.97
2022-10-06T03:22:03.090Z,9.92
2022-10-06T03:24:43.080Z,9.94
2022-10-06T03:27:15.765Z,9.93
2022-10-06T03:29:47.801Z,9.93
2022-10-06T03:32:20.259Z,9.95
2022-10-06T03:34:53.456Z,9.94
2022-10-06T03:37:25.688Z,9.95
2022-10-06T03:39:58.145Z,9.97
2022-10-06T03:42:30.350Z,9.98
2022-10-06T03:45:02.592Z,9.99
2022-10-06T03:47:34.531Z,9.99
2022-10-06T03:50:06.837Z,10.03
2022-10-06T03:52:38.897Z,10.04
2022-10-06T03:55:11.160Z,10.07
2022-10-06T03:57:44.330Z,10.06
2022-10-06T04:00:16.780Z,10.10
2022-10-06T04:02:51.440Z,10.16
2022-10-06T04:05:23.558Z,10.22
2022-10-06T04:07:55.701Z,10.26
2022-10-06T04:10:28.127Z,10.32
2022-10-06T04:13:00.193Z,10.35
2022-10-06T04:15:33.301Z,10.37
2022-10-06T04:18:05.504Z,10.41
2022-10-06T04:20:37.483Z,10.45
2022-10-06T04:23:10.855Z,10.48
2022-10-06T04:25:42.967Z,10.52
2022-10-06T04:28:15.753Z,10.55
2022-10-06T04:30:50.999Z,10.57
2022-10-06T04:33:23.579Z,10.60
2022-10-06T04:36:03.471Z,10.65
2022-10-06T04:38:37.549Z,10.67
2022-10-06T04:41:18.872Z,10.68
2022-10-06T04:43:52.653Z,10.72
2022-10-06T04:46:43.749Z,10.74
2022-10-06T04:49:01.083Z,10.75
2022-10-06T04:51:34.613Z,10.76
2022-10-06T04:54:07.361Z,10.79
2022-10-06T04:56:39.718Z,10.79
2022-10-06T04:59:11.930Z,10.80
2022-10-06T05:01:46.516Z,10.84
2022-10-06T05:04:19.493Z,10.88
2022-10-06T05:06:52.024Z,10.93
2022-10-06T05:09:24.116Z,10.98
2022-10-06T05:11:58.925Z,11.04
2022-10-06T05:14:32.847Z,11.12
2022-10-06T05:17:05.310Z,11.20
2022-10-06T05:19:38.753Z,11.27
2022-10-06T05:22:11.404Z,11.33
2022-10-06T05:24:44.326Z,11.36
2022-10-06T05:27:16.402Z,11.41
2022-10-06T05:29:48.962Z,11.41
2022-10-06T05:32:22.034Z,11.43
2022-10-06T05:34:54.468Z,11.44
2022-10-06T05:37:26.457Z,11.45
2022-10-06T05:39:59.236Z,11.48
2022-10-06T05:42:32.700Z,11.49
2022-10-06T05:45:05.346Z,11.53
2022-10-06T05:47:37.669Z,11.55
2022-10-06T05:50:10.390Z,11.57
2022-10-06T05:52:42.398Z,11.59
2022-10-06T05:55:14.605Z,11.65
2022-10-06T05:57:46.785Z,11.70
2022-10-06T06:00:18.948Z,11.76
2022-10-06T06:02:51.116Z,11.83
2022-10-06T06:05:23.411Z,11.95
2022-10-06T06:07:56.089Z,12.10
2022-10-06T06:10:28.487Z,12.25
2022-10-06T06:13:00.950Z,12.32
2022-10-06T06:16:01.731Z,12.37
2022-10-06T06:18:36.925Z,12.45
2022-10-06T06:21:12.655Z,12.60
2022-10-06T06:23:47.230Z,12.72
2022-10-06T06:26:27.956Z,12.82
2022-10-06T06:29:05.539Z,12.93
2022-10-06T06:31:42.435Z,12.90
2022-10-06T06:34:14.586Z,12.86
2022-10-06T06:36:49.836Z,12.81
2022-10-06T06:39:21.746Z,12.77
2022-10-06T06:41:54.770Z,12.75
2022-10-06T06:44:44.651Z,12.76
2022-10-06T06:47:20.832Z,12.73
2022-10-06T06:49:52.434Z,12.76
2022-10-06T06:52:26.207Z,12.80
2022-10-06T06:54:58.633Z,12.80
2022-10-06T06:57:33.781Z,12.80
2022-10-06T07:00:08.252Z,12.80
2022-10-06T07:02:41.850Z,12.77
2022-10-06T07:05:14.191Z,12.74
2022-10-06T07:07:47.969Z,12.79
2022-10-06T07:10:20.088Z,12.83
2022-10-06T07:12:53.017Z,12.92
2022-10-06T07:15:43.796Z,12.96
2022-10-06T07:18:33.863Z,12.99
2022-10-06T07:21:12.175Z,13.04
2022-10-06T07:24:01.885Z,13.09
2022-10-06T07:26:33.972Z,13.13
2022-10-06T07:29:06.732Z,13.12
2022-10-06T07:31:39.433Z,13.08
2022-10-06T07:34:12.084Z,13.04
2022-10-06T07:36:46.195Z,13.05
2022-10-06T07:39:18.175Z,13.10
2022-10-06T07:41:50.151Z,13.26
2022-10-06T07:44:23.201Z,13.47
2022-10-06T07:46:55.618Z,13.68
2022-10-06T07:49:29.430Z,13.78
2022-10-06T07:52:02.702Z,13.81
2022-10-06T07:54:35.046Z,13.81
2022-10-06T07:57:11.839Z,13.82
2022-10-06T07:59:44.559Z,13.81
2022-10-06T08:02:18.164Z,13.76
2022-10-06T08:04:50.763Z,13.76
2022-10-06T08:07:23.512Z,13.77
2022-10-06T08:09:56.276Z,13.81
2022-10-06T08:12:34.142Z,13.82
2022-10-06T08:15:08.515Z,13.77
2022-10-06T08:17:40.673Z,13.78
2022-10-06T08:20:14.660Z,13.75
2022-10-06T08:22:49.293Z,13.77
2022-10-06T08:25:21.871Z,13.77
2022-10-06T08:27:54.358Z,13.77
2022-10-06T08:30:27.237Z,13.73
2022-10-06T08:32:59.260Z,13.64
2022-10-06T08:35:31.493Z,13.53
2022-10-06T08:38:03.866Z,13.55
2022-10-06T08:40:36.422Z,13.63
2022-10-06T08:43:11.231Z,13.71
2022-10-06T08:45:46.019Z,13.73
2022-10-06T08:48:25.061Z,13.73
2022-10-06T08:51:15.436Z,13.71
2022-10-06T08:53:59.800Z,13.67
2022-10-06T08:56:49.912Z,13.66
2022-10-06T08:59:22.671Z,13.66
2022-10-06T09:01:55.110Z,13.64
2022-10-06T09:04:34.361Z,13.59
2022-10-06T09:07:11.584Z,13.53
2022-10-06T09:09:54.887Z,13.46
2022-10-06T09:12:52.313Z,13.41
2022-10-06T09:15:50.556Z,13.35
2022-10-06T09:18:49.886Z,13.31
2022-10-06T09:21:09.862Z,13.23
2022-10-06T09:23:50.380Z,13.14
2022-10-06T09:26:31.388Z,13.13
2022-10-06T09:29:04.710Z,13.13
2022-10-06T09:31:45.392Z,13.13
2022-10-06T09:34:39.223Z,13.20
2022-10-06T09:37:14.230Z,13.24
2022-10-06T09:39:50.323Z,13.28
2022-10-06T09:42:35.226Z,13.31
2022-10-06T09:45:08.234Z,13.33
2022-10-06T09:47:44.356Z,13.57
2022-10-06T09:50:22.320Z,13.54
2022-10-06T09:53:06.205Z,13.63
2022-10-06T09:55:46.892Z,13.67
2022-10-06T09:58:25.121Z,13.70
2022-10-06T10:01:00.538Z,13.72
2022-10-06T10:04:08.497Z,13.77
2022-10-06T10:06:30.215Z,13.85
2022-10-06T10:09:23.142Z,13.93
2022-10-06T10:12:21.797Z,13.99
2022-10-06T10:14:55.317Z,14.12
2022-10-06T10:17:54.091Z,14.31
2022-10-06T10:20:43.884Z,14.45
2022-10-06T10:23:31.624Z,14.60
2022-10-06T10:26:09.812Z,14.77
2022-10-06T10:28:57.026Z,15.05
2022-10-06T10:31:52.706Z,15.31
2022-10-06T10:34:46.911Z,15.82
2022-10-06T10:37:36.460Z,16.10
2022-10-06T10:40:28.019Z,16.25
2022-10-06T10:43:22.267Z,16.34
2022-10-06T10:46:00.201Z,16.38
2022-10-06T10:48:46.611Z,16.51
2022-10-06T10:51:24.123Z,16.33
2022-10-06T10:54:08.285Z,16.14
2022-10-06T10:56:40.672Z,16.14
2022-10-06T10:59:24.464Z,15.96
2022-10-06T11:01:59.461Z,15.76
2022-10-06T11:04:31.953Z,15.51
2022-10-06T11:07:06.925Z,15.42
2022-10-06T11:10:14.915Z,15.29
2022-10-06T11:13:21.568Z,15.19
2022-10-06T11:16:00.178Z,15.08
2022-10-06T11:18:50.382Z,15.04
2022-10-06T11:21:31.605Z,15.04
2022-10-06T11:24:21.295Z,15.04
2022-10-06T11:27:05.227Z,15.09
2022-10-06T11:30:00.252Z,15.16
2022-10-06T11:32:39.759Z,15.17
2022-10-06T11:35:20.521Z,15.11
2022-10-06T11:38:11.949Z,15.09
2022-10-06T11:40:58.830Z,15.15
2022-10-06T11:43:36.660Z,15.15
2022-10-06T11:46:20.397Z,15.13
2022-10-06T11:48:52.554Z,14.84
2022-10-06T11:51:29.931Z,14.84
2022-10-06T11:54:02.457Z,14.92
2022-10-06T11:56:38.773Z,14.88
2022-10-06T11:59:16.872Z,14.93
2022-10-06T12:01:51.303Z,15.01
2022-10-06T12:04:24.648Z,15.12
2022-10-06T12:07:00.854Z,15.38
2022-10-06T12:09:45.513Z,15.20
2022-10-06T12:12:20.982Z,15.18
2022-10-06T12:17:05.069Z,15.15
2022-10-06T12:17:42.725Z,15.11
2022-10-06T12:20:17.933Z,15.19
2022-10-06T12:22:55.782Z,15.42
2022-10-06T12:25:37.399Z,15.55
2022-10-06T12:28:17.916Z,15.56
2022-10-06T12:31:22.443Z,15.58
2022-10-06T12:33:56.208Z,15.58
2022-10-06T12:36:32.234Z,15.62
2022-10-06T12:39:07.560Z,15.57
2022-10-06T12:42:00.677Z,15.46
2022-10-06T12:44:45.158Z,15.51
2022-10-06T12:47:32.635Z,15.47
2022-10-06T12:50:28.499Z,15.42
2022-10-06T12:53:06.414Z,15.36
2022-10-06T12:55:44.897Z,15.28
2022-10-06T12:58:22.636Z,15.23
2022-10-06T13:00:56.680Z,15.12
2022-10-06T13:03:29.996Z,15.03
2022-10-06T13:06:04.859Z,15.00
2022-10-06T13:08:39.166Z,14.91
2022-10-06T13:11:26.489Z,14.89
2022-10-06T13:14:01.309Z,14.65
2022-10-06T13:16:37.321Z,14.65
2022-10-06T13:19:24.174Z,14.72
2022-10-06T13:21:56.496Z,14.68
2022-10-06T13:24:28.846Z,14.62
2022-10-06T13:27:03.389Z,14.57
2022-10-06T13:29:35.570Z,14.54
2022-10-06T13:32:13.281Z,14.47
2022-10-06T13:34:46.076Z,14.44
2022-10-06T13:37:18.671Z,14.45
2022-10-06T13:39:51.255Z,14.41
2022-10-06T13:42:23.518Z,14.41
2022-10-06T13:45:01.773Z,14.43
2022-10-06T13:47:34.739Z,14.46
2022-10-06T13:50:19.814Z,14.46
2022-10-06T13:52:50.760Z,14.47
2022-10-06T13:55:28.781Z,14.46
2022-10-06T13:58:06.800Z,14.46
2022-10-06T14:01:00.953Z,14.37
2022-10-06T14:03:37.854Z,14.37
2022-10-06T14:06:18.978Z,14.33
2022-10-06T14:08:56.948Z,14.31
2022-10-06T14:11:31.799Z,14.26
2022-10-06T14:14:07.007Z,14.24
2022-10-06T14:16:39.329Z,14.20
2022-10-06T14:19:33.090Z,14.18
2022-10-06T14:22:07.766Z,14.17
2022-10-06T14:24:43.411Z,14.14
2022-10-06T14:27:15.397Z,14.18
2022-10-06T14:29:47.306Z,14.18
2022-10-06T14:32:20.464Z,14.21
2022-10-06T14:34:52.911Z,14.22
2022-10-06T14:37:25.091Z,14.20
2022-10-06T14:39:57.712Z,14.18
2022-10-06T14:42:29.876Z,14.17
2022-10-06T14:45:03.266Z,14.11
2022-10-06T14:47:35.943Z,14.06
2022-10-06T14:50:08.893Z,14.04
2022-10-06T14:52:41.443Z,14.04
2022-10-06T14:55:13.631Z,14.04
2022-10-06T14:57:45.704Z,14.03
2022-10-06T15:00:19.731Z,14.01
2022-10-06T15:02:52.029Z,13.98
2022-10-06T15:05:25.001Z,13.98
2022-10-06T15:08:12.130Z,13.94
2022-10-06T15:10:47.557Z,13.92
2022-10-06T15:13:20.006Z,13.93
2022-10-06T15:15:54.997Z,13.91
2022-10-06T15:18:27.210Z,13.88
2022-10-06T15:21:04.516Z,13.89
2022-10-06T15:23:37.511Z,13.90
2022-10-06T15:26:28.784Z,13.90
2022-10-06T15:29:06.424Z,13.89
2022-10-06T15:31:40.693Z,13.95
2022-10-06T15:34:14.658Z,13.93
2022-10-06T15:36:46.723Z,13.93
2022-10-06T15:39:19.284Z,13.95
2022-10-06T15:41:51.557Z,13.94
2022-10-06T15:44:23.891Z,13.95
2022-10-06T15:46:58.178Z,13.92
2022-10-06T15:49:32.494Z,13.91
2022-10-06T15:52:05.325Z,13.91
2022-10-06T15:54:41.638Z,13.79
2022-10-06T15:57:20.363Z,13.89
2022-10-06T15:59:48.653Z,13.87
2022-10-06T16:02:21.463Z,13.91
2022-10-06T16:04:56.634Z,13.89
2022-10-06T16:07:30.646Z,13.87
2022-10-06T16:10:02.862Z,13.91
2022-10-06T16:12:34.861Z,13.89
2022-10-06T16:15:07.988Z,13.87
2022-10-06T16:17:40.129Z,13.89
2022-10-06T16:20:12.524Z,13.94
2022-10-06T16:22:44.505Z,13.91
2022-10-06T16:25:16.480Z,13.93
2022-10-06T16:27:48.543Z,13.91
2022-10-06T16:30:20.608Z,13.91
2022-10-06T16:32:53.214Z,13.86
2022-10-06T16:35:25.536Z,13.86
2022-10-06T16:37:57.857Z,13.84
2022-10-06T16:40:30.098Z,13.82
2022-10-06T16:43:02.260Z,13.83
2022-10-06T16:45:34.752Z,13.83
2022-10-06T16:48:07.275Z,13.82
2022-10-06T16:50:39.388Z,13.83
2022-10-06T16:53:16.794Z,13.86
2022-10-06T16:55:46.892Z,13.89
2022-10-06T16:58:18.929Z,13.89
2022-10-06T17:00:58.657Z,13.90
2022-10-06T17:03:30.976Z,13.89
2022-10-06T17:06:05.094Z,13.88
2022-10-06T17:08:37.442Z,13.88
2022-10-06T17:11:14.802Z,14.04
2022-10-06T17:13:48.724Z,13.91
2022-10-06T17:16:23.379Z,13.90
2022-10-06T17:18:57.148Z,13.89
2022-10-06T17:21:45.493Z,13.85
2022-10-06T17:24:04.067Z,13.86
2022-10-06T17:26:41.188Z,14.05
2022-10-06T17:29:21.919Z,13.88
2022-10-06T17:31:56.575Z,13.86
2022-10-06T17:34:32.434Z,13.84
2022-10-06T17:37:03.865Z,14.00
2022-10-06T17:39:36.146Z,13.83
2022-10-06T17:42:08.316Z,13.79
2022-10-06T17:44:40.684Z,13.77
2022-10-06T17:47:13.403Z,13.78
2022-10-06T17:49:45.631Z,13.81
2022-10-06T17:52:23.899Z,13.81
2022-10-06T17:54:54.550Z,13.81
2022-10-06T17:57:28.173Z,13.82
2022-10-06T18:00:00.728Z,13.79
2022-10-06T18:02:34.811Z,13.81
2022-10-06T18:05:07.078Z,13.80
2022-10-06T18:07:39.961Z,13.79
2022-10-06T18:10:29.554Z,13.77
2022-10-06T18:13:01.686Z,13.78
2022-10-06T18:15:37.871Z,13.78
2022-10-06T18:18:10.099Z,13.78
2022-10-06T18:20:42.600Z,13.80
2022-10-06T18:23:14.861Z,13.80
2022-10-06T18:25:46.908Z,13.77
2022-10-06T18:28:19.421Z,13.75
2022-10-06T18:30:52.120Z,13.73
2022-10-06T18:36:15.500Z,13.64
2022-10-06T18:38:35.164Z,13.59
2022-10-06T18:41:09.968Z,13.53
2022-10-06T18:43:42.228Z,13.52
2022-10-06T18:46:33.220Z,13.48
2022-10-06T18:49:12.123Z,13.45
2022-10-06T18:51:58.270Z,13.50
2022-10-06T18:54:30.396Z,13.54
2022-10-06T18:57:02.489Z,13.52
2022-10-06T18:59:35.398Z,13.51
2022-10-06T19:02:07.652Z,13.51
2022-10-06T19:04:42.899Z,13.52
2022-10-06T19:07:15.001Z,13.52
2022-10-06T19:09:47.705Z,13.54
2022-10-06T19:12:19.697Z,13.52
2022-10-06T19:14:51.801Z,13.53
2022-10-06T19:17:25.680Z,13.47
2022-10-06T19:19:57.784Z,13.43
2022-10-06T19:22:29.842Z,13.44
2022-10-06T19:25:01.841Z,13.45
2022-10-06T19:27:35.264Z,13.45
2022-10-06T19:30:08.002Z,13.46
2022-10-06T19:32:40.826Z,13.51
2022-10-06T19:35:12.905Z,13.52
2022-10-06T19:37:45.592Z,13.54
2022-10-06T19:40:18.047Z,13.56
2022-10-06T19:42:51.328Z,13.57
2022-10-06T19:45:23.346Z,13.57
2022-10-06T19:47:56.967Z,13.58
2022-10-06T19:50:29.514Z,13.61
2022-10-06T19:53:01.861Z,13.59
2022-10-06T19:55:34.168Z,13.61
2022-10-06T19:58:06.228Z,13.64
2022-10-06T20:00:38.291Z,13.63
2022-10-06T20:03:10.326Z,13.62
2022-10-06T20:05:42.296Z,13.64
2022-10-06T20:08:14.434Z,13.64
2022-10-06T20:10:46.698Z,13.64
2022-10-06T20:13:19.447Z,13.66
2022-10-06T20:15:52.238Z,13.64
2022-10-06T20:18:25.525Z,13.66
2022-10-06T20:20:59.020Z,13.67
2022-10-06T20:23:31.928Z,13.64
2022-10-06T20:26:14.664Z,13.65
2022-10-06T20:28:48.493Z,13.65
2022-10-06T20:31:23.130Z,13.66
2022-10-06T20:33:56.645Z,13.65
2022-10-06T20:36:30.086Z,13.85
2022-10-06T20:39:20.435Z,13.70
2022-10-06T20:41:53.396Z,13.66
2022-10-06T20:44:25.752Z,13.66
2022-10-06T20:46:57.740Z,13.61
2022-10-06T20:49:29.920Z,13.55
2022-10-06T20:52:02.937Z,13.54
2022-10-06T20:54:37.874Z,13.56
2022-10-06T20:57:09.978Z,13.53
2022-10-06T20:59:42.413Z,13.51
2022-10-06T21:02:14.344Z,13.52
2022-10-06T21:04:46.313Z,13.53
2022-10-06T21:07:18.633Z,13.49
2022-10-06T21:09:52.348Z,13.48
2022-10-06T21:12:24.442Z,13.47
2022-10-06T21:14:57.100Z,13.51
2022-10-06T21:17:29.342Z,13.55
2022-10-06T21:20:01.447Z,13.56
2022-10-06T21:22:33.597Z,13.52
2022-10-06T21:25:05.648Z,13.50
2022-10-06T21:27:37.837Z,13.42
2022-10-06T21:30:10.371Z,13.41
2022-10-06T21:32:42.603Z,13.36
2022-10-06T21:35:14.609Z,13.33
2022-10-06T21:37:47.353Z,13.30
2022-10-06T21:40:19.378Z,13.31
2022-10-06T21:42:51.458Z,13.31
2022-10-06T21:45:24.957Z,13.32
2022-10-06T21:47:58.254Z,13.30
2022-10-06T21:50:30.236Z,13.25
2022-10-06T21:53:02.164Z,13.22
2022-10-06T21:55:34.062Z,13.16
2022-10-06T21:58:06.142Z,13.16
2022-10-06T22:00:39.173Z,13.09
2022-10-06T22:03:11.318Z,12.99
2022-10-06T22:05:43.441Z,12.97
2022-10-06T22:08:15.630Z,12.95
2022-10-06T22:10:47.579Z,12.91
2022-10-06T22:13:19.779Z,12.91
2022-10-06T22:15:51.824Z,12.90
2022-10-06T22:18:23.812Z,12.88
2022-10-06T22:20:55.883Z,12.89
2022-10-06T22:23:28.555Z,12.90
2022-10-06T22:26:00.839Z,12.92
2022-10-06T22:28:33.146Z,13.00
2022-10-06T22:31:07.100Z,12.98
2022-10-06T22:33:40.763Z,12.97
2022-10-06T22:36:14.864Z,13.00
2022-10-06T22:38:47.216Z,13.06
2022-10-06T22:41:19.466Z,13.08
2022-10-06T22:43:59.551Z,13.06
2022-10-06T22:46:33.819Z,13.21
2022-10-06T22:49:06.470Z,13.11
2022-10-06T22:51:38.702Z,13.12
2022-10-06T22:54:13.607Z,13.11
2022-10-06T22:56:45.797Z,13.09
2022-10-06T22:59:17.897Z,13.10
2022-10-06T23:01:49.963Z,13.10
2022-10-06T23:04:21.997Z,13.04
2022-10-06T23:06:54.068Z,13.04
2022-10-06T23:09:26.219Z,13.00
2022-10-06T23:11:58.236Z,12.93
2022-10-06T23:14:30.324Z,13.05
2022-10-06T23:17:02.364Z,13.02
2022-10-06T23:19:34.351Z,13.02
2022-10-06T23:22:06.687Z,13.00
2022-10-06T23:24:38.638Z,12.99
2022-10-06T23:27:10.546Z,12.96
2022-10-06T23:29:42.743Z,12.85
2022-10-06T23:32:14.820Z,12.86
2022-10-06T23:34:46.889Z,12.85
2022-10-06T23:37:18.832Z,12.91
2022-10-06T23:39:50.815Z,13.09
2022-10-06T23:42:22.778Z,12.99
2022-10-06T23:44:54.695Z,13.04
2022-10-06T23:47:26.760Z,13.04
2022-10-06T23:49:58.873Z,13.04
2022-10-06T23:52:32.744Z,13.06
2022-10-06T23:55:04.966Z,13.11
2022-10-06T23:57:37.046Z,13.07
